• Join FlightAware (Why Join?)
  • Login
  • US Flag 
06:03PM EST


 

Airport Tracker/Info


-or-


 

Live Flight TrackerFlight Track Log ✈ EGF3773 ✈ 05-May-2013 ✈ KDEN - KORD

Flight Track Log - Related Links

Times and Time Zones

All times are in EDT time to prevent confusion due to time zone crossing. See the EGF3773 flight status page for this flight to view local times or setup timezone preferences in your user account.

Time Position Orientation Groundspeed Altitude Reporting Facility
EDT Latitude Longitude Course Direction KTS MPH feet Rate Location/Type
08:18PM 39.8833 -104.5833 66° East 192 221 6,700  Level Denver TRACON
08:19PM 39.9000 -104.5000 75° East 250 288 9,100 2,460 Climbing Denver TRACON
08:20PM 39.9231 -104.2387 73° East  Level FlightAware Approximate
08:20PM 39.9167 -104.4167 75° East 269 310 11,400  Level Denver TRACON
08:21PM 39.9556 -104.0983 73° East  Level FlightAware Approximate
08:21PM 39.9333 -104.3167 78° East 313 360 12,800  Level Denver TRACON
08:22PM 39.9757 -103.9561 66° East  Level FlightAware Approximate
08:22PM 39.9642 -104.1869 73° East 362 417 14,200  Level Denver Center
08:23PM 40.0010 -103.8136 66° East  Level FlightAware Approximate
08:23PM 39.9839 -104.0414 80° East 378 435 16,400  Level Denver Center
08:24PM 39.9994 -103.9008 82° East 392 451 18,200 1,740 Climbing Denver Center
08:25PM 40.0214 -103.7633 78° East 389 448 20,000 1,560 Climbing Denver Center
08:26PM 40.0414 -103.6456 77° East 385 443 21,400 1,320 Climbing Denver Center
08:27PM 40.0711 -103.4728 77° East 414 476 22,800 1,200 Climbing Denver Center
08:28PM 40.0942 -103.3208 79° East 422 486 24,000 1,200 Climbing Denver Center
08:29PM 40.1200 -103.1644 78° East 436 502 25,300 1,200 Climbing Denver Center
08:30PM 40.1447 -103.0086 78° East 436 502 26,500 780 Climbing Denver Center
08:31PM 40.1731 -102.8194 79° East 452 520 27,000 540 Climbing Denver Center
08:32PM 40.1967 -102.6667 79° East 470 541 27,700 900 Climbing Denver Center
08:33PM 40.2264 -102.4778 78° East 476 548 28,900 600 Climbing Denver Center
08:34PM 40.2517 -102.3131 79° East 481 554 29,000  Climbing Denver Center
08:35PM 40.2811 -102.1097 79° East 507 583 29,000  Level Denver Center
08:36PM 40.3083 -101.9400 78° East 500 575 29,000  Level Denver Center
08:37PM 40.3358 -101.7458 79° East 486 559 29,000 480 Level Denver Center
08:38PM 40.3603 -101.5797 79° East 487 560 30,000 960 Climbing Denver Center
08:39PM 40.3883 -101.3856 79° East 488 562 31,100 1,020 Climbing Denver Center
08:40PM 40.4125 -101.2189 79° East 489 563 32,100 780 Climbing Denver Center
08:41PM 40.4508 -101.0575 73° East 489 563 32,800 720 Climbing Denver Center
08:42PM 40.5147 -100.8789 65° Northeast 488 562 33,600 720 Climbing Denver Center
08:43PM 40.5700 -100.7244 65° Northeast 491 565 34,400 780 Climbing Denver Center
08:44PM 40.6339 -100.5461 65° Northeast 490 564 35,300 780 Climbing Denver Center
08:45PM 40.6881 -100.3931 65° Northeast 488 562 36,000 720 Climbing Denver Center
08:46PM 40.7508 -100.2158 65° Northeast 481 554 36,900 480 Climbing Denver Center
08:47PM 40.8039 -100.0619 65° Northeast 482 555 37,000  Climbing Denver Center
08:48PM 40.8669 -99.8817 65° Northeast 486 559 37,000  Level Denver Center
08:49PM 40.9194 -99.7300 65° Northeast 478 550 37,000 -540 Level Denver Center
08:51PM 40.9736 -99.5708 66° East 474 545 35,900 -1,020 Descending Denver Center
08:52PM 41.0292 -99.4072 66° East 482 555 35,000 -480 Descending Denver Center
08:53PM 41.0983 -99.2028 66° East 502 578 35,000  Level Denver Center
08:54PM 41.1519 -99.0422 66° East 510 587 35,000  Level Denver Center
08:55PM 41.2156 -98.8517 66° East 508 585 35,000  Level Denver Center
08:55PM 41.2314 -98.8122 62° Northeast 508 585 35,000  Level Minneapolis Center
08:56PM 41.2850 -98.6456 67° East 495 570 35,000  Level Minneapolis Center
08:57PM 41.3381 -98.4842 66° East 484 557 35,000  Level Minneapolis Center
08:58PM 41.4011 -98.2881 67° East 482 555 35,000  Level Minneapolis Center
08:59PM 41.4533 -98.1283 66° East 477 549 35,000  Level Minneapolis Center
09:00PM 41.5000 -97.9650 69° East 473 544 35,000  Level Minneapolis Center
09:01PM 41.5189 -97.7933 82° East 469 540 35,000  Level Minneapolis Center
09:02PM 41.5469 -97.6231 78° East 469 540 35,000  Level Minneapolis Center
09:03PM 41.5733 -97.4494 78° East 472 543 35,000  Level Minneapolis Center
09:04PM 41.5997 -97.2758 78° East 475 547 35,000  Level Minneapolis Center
09:05PM 41.6267 -97.1000 78° East 478 550 35,000  Level Minneapolis Center
09:06PM 41.6589 -96.8908 78° East 479 551 35,000  Level Minneapolis Center
09:07PM 41.6853 -96.7194 78° East 475 547 35,000  Level Minneapolis Center
09:08PM 41.7094 -96.5503 79° East 466 536 35,000  Level Minneapolis Center
09:09PM 41.7342 -96.3806 79° East 463 533 35,000  Level Minneapolis Center
09:10PM 41.7572 -96.2119 80° East 460 529 35,000  Level Minneapolis Center
09:11PM 41.7811 -96.0447 79° East 454 522 35,000  Level Minneapolis Center
09:12PM 41.8053 -95.8761 79° East 456 525 35,000  Level Minneapolis Center
09:14PM 41.8286 -95.7103 79° East 452 520 35,000  Level Minneapolis Center
09:15PM 41.8494 -95.5428 80° East 454 522 35,000  Level Minneapolis Center
09:16PM 41.8719 -95.3775 80° East 451 519 35,000  Level Minneapolis Center
09:17PM 41.8983 -95.1806 80° East 447 514 35,000  Level Minneapolis Center
09:18PM 41.9203 -95.0178 80° East 444 511 35,000  Level Minneapolis Center
09:19PM 41.9414 -94.8536 80° East 445 512 35,000  Level Minneapolis Center
09:20PM 41.9617 -94.6917 80° East 441 507 35,000  Level Minneapolis Center
09:21PM 41.9831 -94.5308 80° East 438 504 35,000  Level Minneapolis Center
09:22PM 42.0031 -94.3708 80° East 435 501 35,000  Level Minneapolis Center
09:23PM 42.0231 -94.2106 80° East 434 499 35,000  Level Minneapolis Center
09:24PM 42.0419 -94.0517 81° East 431 496 35,000  Level Minneapolis Center
09:25PM 42.0664 -93.8597 80° East 433 498 35,000  Level Minneapolis Center
09:26PM 42.0872 -93.6931 80° East 431 496 35,000  Level Minneapolis Center
09:27PM 42.1017 -93.5667 81° East 432 497 35,000  Level Minneapolis Center
09:28PM 42.1278 -93.3436 81° East 434 499 35,000  Level Minneapolis Center
09:29PM 42.1453 -93.1836 82° East 436 502 35,000  Level Minneapolis Center
09:30PM 42.1642 -93.0214 81° East 440 506 35,000  Level Minneapolis Center
09:31PM 42.1822 -92.8575 81° East 446 513 35,000  Level Minneapolis Center
09:32PM 42.2022 -92.6919 81° East 450 518 35,000  Level Minneapolis Center
09:33PM 42.2200 -92.5244 82° East 454 522 35,000  Level Minneapolis Center
09:34PM 42.2419 -92.3231 82° East 456 525 35,000  Level Minneapolis Center
09:35PM 42.2597 -92.1550 82° East 457 526 35,000 -300 Level Minneapolis Center
09:36PM 42.2736 -92.0167 82° East 462 532 34,500 -900 Descending Chicago Center
09:37PM 42.2900 -91.8514 82° East 455 524 33,400 -1,080 Descending Chicago Center
09:38PM 42.3067 -91.6933 82° East 438 504 32,400 -1,080 Descending Chicago Center
09:39PM 42.3225 -91.5297 82° East 445 512 31,300 -1,200 Descending Chicago Center
09:40PM 42.3425 -91.3258 82° East 463 533 30,000 -1,140 Descending Chicago Center
09:41PM 42.3592 -91.1556 82° East 464 534 29,000 -540 Descending Chicago Center
09:42PM 42.3753 -90.9872 83° East 459 528 29,000  Level Chicago Center
09:43PM 42.3911 -90.8197 83° East 456 525 29,000 -300 Level Chicago Center
09:44PM 42.4075 -90.6531 82° East 454 522 28,400 -840 Descending Chicago Center
09:45PM 42.4242 -90.4922 82° East 441 507 27,400 -1,080 Descending Chicago Center
09:46PM 42.4419 -90.3044 83° East 426 490 26,200 -1,080 Descending Chicago Center
09:47PM 42.4583 -90.1494 82° East 421 484 25,200 -960 Descending Chicago Center
09:48PM 42.4731 -89.9947 83° East 419 482 24,300 -1,020 Descending Chicago Center
09:49PM 42.4886 -89.8322 83° East 420 483 23,200 -1,080 Descending Chicago Center
09:50PM 42.5042 -89.6761 82° East 419 482 22,200 -1,020 Descending Chicago Center
09:51PM 42.5192 -89.5217 82° East 416 479 21,200 -600 Descending Chicago Center
09:52PM 42.5325 -89.3661 83° East 418 481 21,000 -1,260 Descending Chicago Center
09:53PM 42.5022 -89.1844 103° East 421 484 18,700 -2,280 Descending Chicago Center
09:54PM 42.4756 -89.0406 104° East 402 463 16,400 -2,340 Descending Chicago Center
09:55PM 42.4497 -88.9017 104° East 387 445 14,000 -2,400 Descending Chicago Center
09:57PM 42.4256 -88.7681 104° East 374 430 11,600 -1,860 Descending Chicago Center
09:58PM 42.4033 -88.6503 104° East 339 390 10,300 -1,140 Descending Chicago Center
09:59PM 42.3839 -88.5467 104° East 298 343 9,300 -660 Descending Chicago Center
10:00PM 42.3603 -88.4483 108° East 281 323 9,000 -180 Descending Chicago Center
10:01PM 42.2997 -88.3819 141° Southeast 274 315 9,000  Level Chicago Center
10:02PM 42.2311 -88.3361 154° Southeast 276 318 9,000 -300 Level Chicago Center
10:03PM 42.1650 -88.3308 177° South 235 270 8,500 -780 Descending Chicago Center
10:04PM 42.0994 -88.3244 176° South 238 274 7,500 -960 Descending Chicago Center
10:05PM 42.0406 -88.3194 176° South 218 251 6,600 -1,020 Descending Chicago Center
10:06PM 41.9814 -88.3172 178° South 213 245 5,500 -780 Descending Chicago Center
10:07PM 41.9678 -88.2600 108° East 172 198 5,000 -420 Descending Chicago Center
10:08PM 41.9675 -88.1969 90° East 170 196 4,700 -600 Descending Chicago Center
10:09PM 41.9675 -88.1375 90° East 164 189 3,800 -1,020 Descending Chicago Center
10:10PM 41.9683 -88.0750 89° East 164 189 2,700 -900 Descending Chicago Center
10:11PM 41.9667 -88.0000 92° East 138 159 1,900 -780 Descending Chicago TRACON
10:12PM 41.9667 -87.9500 90° East 129 148 1,100 -840 Descending Chicago TRACON